首页
METAR-TAF:

METAR-TAF

机场 :

大加那利机场

大加那利岛, 西班牙

纬度: 27-56N, 经度: 015-23W, 海拔: 23米

当前天气观测

该预报发布于35分钟前的12:00 UTC
风速21节,风向,在北转西北东北之间变化
温度 26°C
湿度 54%
气压 1015 hPa
能见度10公里或以上
少量云层高于2500英尺
多云层高于3500英尺

METAR: GCLP 181200Z 01021KT 340V040 9999 FEW025 BKN035 26/16 Q1015 NOSIG

时间: 13:35 (12:35 UTC)

预报

该预报发布于4小时和35分钟前的08:00 UTC
预报有效从18日的 09点(UTC)到 19日的 09点(UTC)
风速23节,风向
能见度10公里或以上
散云层高于3000英尺
几率 40% :
短暂存在
从 18日的 09点(UTC)到 18日的 20点(UTC)
风速23节,风向,有时为33节阵风

TAF: GCLP 180800Z 1809/1909 36023KT 9999 SCT030 TX26/1815Z TN21/1905Z PROB40 TEMPO 1809/1820 36023G33KT

超过4000个机场的气象观测和天气预报(METAR&TAF报告)。

可查询的气象台以黄色和红色小点在地图上表示。

将鼠标移到小点上方,可查看气象台名称。

然后点击查看天气观测和预报。

如需切换地图:点击带黑十字的绿色按钮放大地图;点击带横线的绿色按钮缩小地图;或者点击绿色箭头查看邻近地区的地图。


METAR-TAF: